Time;durP1;ratioP1;P1;durP2;ratioP2;P2;SDS_P1;SDS_P2;PMS_P1;PMS_P2;Temp;Humidity;BMP_temperature;BMP_pressure;BME280_temperature;BME280_humidity;BME280_pressure;Samples;Min_cycle;Max_cycle;Signal;HPM_P1;HPM_P2
2022/04/11 00:01:47;;;;;;;2.97;1.50;;;11.10;68.50;;;;;;5063075;28;20071;-60
2022/04/11 00:04:13;;;;;;;5.07;1.85;;;11.10;68.60;;;;;;5062078;28;20037;-61
2022/04/11 00:06:38;;;;;;;2.70;1.80;;;11.10;68.80;;;;;;5063983;28;20505;-60
2022/04/11 00:09:04;;;;;;;2.25;1.60;;;11.00;68.90;;;;;;5062972;28;20031;-60
2022/04/11 00:11:29;;;;;;;3.30;1.90;;;11.10;69.00;;;;;;5063102;28;20060;-60
2022/04/11 00:13:55;;;;;;;2.95;1.98;;;11.00;68.90;;;;;;5064224;28;20111;-59
2022/04/11 00:16:20;;;;;;;3.58;2.13;;;11.00;69.10;;;;;;5063035;28;20324;-60
2022/04/11 00:18:46;;;;;;;2.67;2.03;;;10.90;69.10;;;;;;5063279;28;20043;-60
2022/04/11 00:21:11;;;;;;;3.90;2.17;;;10.90;69.30;;;;;;5064792;28;20028;-60
2022/04/11 00:23:37;;;;;;;4.45;1.88;;;10.90;69.30;;;;;;5063368;28;20075;-60
2022/04/11 00:26:02;;;;;;;3.25;2.10;;;10.90;69.40;;;;;;5061553;28;20044;-60
2022/04/11 00:28:28;;;;;;;4.25;2.35;;;10.80;69.40;;;;;;5060586;28;20158;-61
2022/04/11 00:30:53;;;;;;;2.58;1.98;;;10.80;69.60;;;;;;5059689;28;20052;-60
2022/04/11 00:33:19;;;;;;;3.45;2.30;;;10.80;69.60;;;;;;5063050;28;20040;-61
2022/04/11 00:35:46;;;;;;;4.75;2.75;;;10.70;69.50;;;;;;5064561;28;20056;-60
2022/04/11 00:38:12;;;;;;;4.13;2.92;;;10.70;69.70;;;;;;5063245;28;20024;-60
2022/04/11 00:40:37;;;;;;;4.93;2.90;;;10.70;69.80;;;;;;5065013;28;20089;-60
2022/04/11 00:43:03;;;;;;;4.47;2.78;;;10.70;69.80;;;;;;5062881;28;20079;-60
2022/04/11 00:45:28;;;;;;;3.97;3.03;;;10.70;69.90;;;;;;5064749;28;20434;-61
2022/04/11 00:47:54;;;;;;;4.30;2.92;;;10.60;70.00;;;;;;5062551;28;20024;-60
2022/04/11 00:50:19;;;;;;;5.65;3.60;;;10.60;69.90;;;;;;5063530;28;20483;-60
2022/04/11 00:52:50;;;;;;;6.65;3.50;;;10.60;70.10;;;;;;5062153;28;20032;-60
2022/04/11 00:55:17;;;;;;;4.13;3.03;;;10.50;70.20;;;;;;5061323;28;20036;-60
2022/04/11 00:57:43;;;;;;;6.03;3.60;;;10.50;70.20;;;;;;5062987;28;20048;-61
2022/04/11 01:00:09;;;;;;;6.68;3.55;;;10.50;70.30;;;;;;5061898;28;20029;-60
2022/04/11 01:02:35;;;;;;;6.07;3.28;;;10.50;70.40;;;;;;5047247;28;20033;-60
2022/04/11 01:05:09;;;;;;;4.10;2.92;;;10.50;70.50;;;;;;5062070;28;20039;-60
2022/04/11 01:07:35;;;;;;;4.65;3.00;;;10.50;70.60;;;;;;5063875;28;20203;-60
2022/04/11 01:10:01;;;;;;;4.85;2.80;;;10.40;70.60;;;;;;5061906;28;20041;-61
2022/04/11 01:12:26;;;;;;;4.80;3.10;;;10.40;70.60;;;;;;5061397;28;20039;-60
2022/04/11 01:14:52;;;;;;;3.92;2.75;;;10.40;70.70;;;;;;5060195;28;20041;-61
2022/04/11 01:17:17;;;;;;;3.83;2.90;;;10.40;70.80;;;;;;5061370;28;20029;-60
2022/04/11 01:19:43;;;;;;;3.90;2.65;;;10.40;70.80;;;;;;5061504;28;20107;-60
2022/04/11 01:22:10;;;;;;;4.82;2.95;;;10.40;70.90;;;;;;5062239;28;20123;-60
2022/04/11 01:24:37;;;;;;;3.92;2.40;;;10.40;71.00;;;;;;5048159;28;20016;-61
2022/04/11 01:27:02;;;;;;;3.78;2.38;;;10.30;70.90;;;;;;5062561;28;20038;-61
2022/04/11 01:29:28;;;;;;;4.78;2.25;;;10.30;70.90;;;;;;5064434;28;20428;-60
2022/04/11 01:31:54;;;;;;;4.75;2.50;;;10.30;71.20;;;;;;5044714;28;20044;-60
2022/04/11 01:34:19;;;;;;;3.88;2.60;;;10.20;71.20;;;;;;5061901;28;20417;-61
2022/04/11 01:36:45;;;;;;;4.60;2.47;;;10.20;71.50;;;;;;5059238;28;20032;-60
2022/04/11 01:39:10;;;;;;;3.05;2.70;;;10.20;71.30;;;;;;5061858;28;20066;-60
2022/04/11 01:41:36;;;;;;;2.97;2.28;;;10.20;71.30;;;;;;5060607;28;20354;-60
2022/04/11 01:44:01;;;;;;;4.47;2.75;;;10.20;71.20;;;;;;5060037;28;20032;-60
2022/04/11 01:46:27;;;;;;;3.05;2.40;;;10.20;71.30;;;;;;5062188;28;20477;-60
2022/04/11 01:48:52;;;;;;;3.53;2.45;;;10.10;71.30;;;;;;5062001;28;20107;-60
2022/04/11 01:51:18;;;;;;;3.25;2.40;;;10.10;71.20;;;;;;5061665;28;20037;-60
2022/04/11 01:53:43;;;;;;;3.40;2.47;;;10.10;71.20;;;;;;5062038;28;20032;-60
2022/04/11 01:56:09;;;;;;;4.38;2.53;;;10.10;71.10;;;;;;5059589;28;20072;-64
2022/04/11 01:58:34;;;;;;;3.40;2.20;;;10.10;71.10;;;;;;5060448;28;20391;-61
2022/04/11 02:01:00;;;;;;;4.15;2.50;;;10.10;71.10;;;;;;5059161;28;20060;-60
2022/04/11 02:03:26;;;;;;;3.53;2.50;;;10.00;71.10;;;;;;5060869;28;20120;-61
2022/04/11 02:05:51;;;;;;;3.13;2.33;;;10.00;71.30;;;;;;5059035;28;20028;-60
2022/04/11 02:08:17;;;;;;;3.40;2.22;;;10.00;71.40;;;;;;5043204;28;20616;-60
2022/04/11 02:10:43;;;;;;;4.55;2.25;;;10.00;71.40;;;;;;5062182;28;20025;-61
2022/04/11 02:13:08;;;;;;;3.42;2.40;;;10.00;71.40;;;;;;5064091;28;20071;-61
2022/04/11 02:15:34;;;;;;;4.00;2.13;;;9.90;71.50;;;;;;5060621;28;20385;-60
2022/04/11 02:18:00;;;;;;;4.22;2.40;;;9.90;71.50;;;;;;5060264;28;20036;-60
2022/04/11 02:20:26;;;;;;;2.88;1.95;;;9.90;71.70;;;;;;5059491;28;20046;-60
2022/04/11 02:22:55;;;;;;;3.13;2.30;;;9.90;71.70;;;;;;5061123;28;20464;-60
2022/04/11 02:25:26;;;;;;;3.40;2.22;;;9.90;71.80;;;;;;5060141;28;20036;-60
2022/04/11 02:27:54;;;;;;;3.55;2.00;;;9.90;71.80;;;;;;5061870;28;20039;-60
2022/04/11 02:30:22;;;;;;;2.60;1.95;;;9.90;71.50;;;;;;5059062;28;20067;-60
2022/04/11 02:32:48;;;;;;;2.90;1.98;;;9.90;71.40;;;;;;5060991;28;20032;-61
2022/04/11 02:35:13;;;;;;;2.35;1.90;;;9.90;71.50;;;;;;5060731;28;20044;-60
2022/04/11 02:37:39;;;;;;;3.13;1.90;;;9.90;71.40;;;;;;5063105;28;20044;-60
2022/04/11 02:40:05;;;;;;;3.70;2.35;;;9.80;71.30;;;;;;5062030;28;20083;-60
2022/04/11 02:42:30;;;;;;;5.25;2.30;;;9.80;71.30;;;;;;5058818;28;20287;-60
2022/04/11 02:44:56;;;;;;;2.65;2.17;;;9.80;71.30;;;;;;5060437;28;20033;-60
2022/04/11 02:47:22;;;;;;;2.80;2.15;;;9.70;71.30;;;;;;5058491;28;20072;-61
2022/04/11 02:49:48;;;;;;;4.28;2.10;;;9.70;71.40;;;;;;5059656;28;20110;-61
2022/04/11 02:52:13;;;;;;;3.50;1.92;;;9.70;71.40;;;;;;5060331;28;20487;-61
2022/04/11 02:54:39;;;;;;;4.22;1.90;;;9.70;71.50;;;;;;5041227;28;20041;-60
2022/04/11 02:57:05;;;;;;;3.28;1.88;;;9.70;71.50;;;;;;5062487;28;20025;-61
2022/04/11 02:59:32;;;;;;;2.67;1.65;;;9.60;71.50;;;;;;5060556;28;20472;-60
2022/04/11 03:01:57;;;;;;;4.22;2.28;;;9.60;71.40;;;;;;5047056;28;20063;-60
2022/04/11 03:04:23;;;;;;;2.88;1.92;;;9.60;71.30;;;;;;5064428;28;20040;-60
2022/04/11 03:06:48;;;;;;;3.17;1.80;;;9.60;71.40;;;;;;5064703;28;20107;-61
2022/04/11 03:09:14;;;;;;;3.63;2.17;;;9.60;71.40;;;;;;5064258;28;20081;-60
2022/04/11 03:11:39;;;;;;;2.58;1.85;;;9.60;71.40;;;;;;5064172;28;20049;-61
2022/04/11 03:14:05;;;;;;;3.13;1.85;;;9.60;71.50;;;;;;5063822;28;20112;-60
2022/04/11 03:16:31;;;;;;;2.72;1.80;;;9.60;71.40;;;;;;5062703;28;20041;-60
2022/04/11 03:18:56;;;;;;;2.35;1.73;;;9.60;71.50;;;;;;5066607;28;20325;-60
2022/04/11 03:21:22;;;;;;;3.25;1.75;;;9.50;71.30;;;;;;5065986;28;20048;-61
2022/04/11 03:23:47;;;;;;;4.07;1.85;;;9.50;71.40;;;;;;5049959;28;20163;-60
2022/04/11 03:26:13;;;;;;;2.58;1.80;;;9.50;71.30;;;;;;5066018;28;20029;-60
2022/04/11 03:28:38;;;;;;;2.78;1.85;;;9.50;71.40;;;;;;5063255;28;20029;-61
2022/04/11 03:31:04;;;;;;;2.53;1.70;;;9.50;71.50;;;;;;5062905;28;20420;-61
2022/04/11 03:33:29;;;;;;;4.18;2.00;;;9.50;71.60;;;;;;5062122;28;20061;-60
2022/04/11 03:35:55;;;;;;;2.85;2.10;;;9.40;71.60;;;;;;5064129;28;20101;-61
2022/04/11 03:38:20;;;;;;;2.40;1.75;;;9.40;71.40;;;;;;5063919;28;20024;-60
2022/04/11 03:40:46;;;;;;;2.45;1.60;;;9.40;71.60;;;;;;5063359;28;20025;-61
2022/04/11 03:43:12;;;;;;;3.83;1.88;;;9.40;71.60;;;;;;5065379;28;20501;-60
2022/04/11 03:45:38;;;;;;;2.38;1.77;;;9.40;71.70;;;;;;5066027;28;20123;-60
2022/04/11 03:48:03;;;;;;;2.38;1.52;;;9.40;71.60;;;;;;5063600;28;20123;-60
2022/04/11 03:50:29;;;;;;;1.80;1.35;;;9.30;71.70;;;;;;5064187;28;20037;-60
2022/04/11 03:52:54;;;;;;;3.15;1.90;;;9.30;71.90;;;;;;5063014;28;20037;-61
2022/04/11 03:55:20;;;;;;;2.35;1.75;;;9.40;72.00;;;;;;5063098;28;20040;-60
2022/04/11 03:57:45;;;;;;;5.07;1.83;;;9.40;71.80;;;;;;5062455;28;20046;-61
2022/04/11 04:00:11;;;;;;;3.45;1.92;;;9.30;71.80;;;;;;5063574;28;20100;-61
2022/04/11 04:02:37;;;;;;;3.35;1.50;;;9.50;72.00;;;;;;5043388;28;20032;-61
2022/04/11 04:05:03;;;;;;;2.15;1.70;;;9.30;71.90;;;;;;5062822;28;20081;-61
2022/04/11 04:07:28;;;;;;;1.92;1.52;;;9.30;71.80;;;;;;5065908;28;20052;-60
2022/04/11 04:09:54;;;;;;;4.30;2.08;;;9.20;71.90;;;;;;5065059;28;20444;-60
2022/04/11 04:12:20;;;;;;;2.90;1.70;;;9.20;71.90;;;;;;5063438;28;20029;-60
2022/04/11 04:14:48;;;;;;;4.32;1.80;;;9.20;72.00;;;;;;5061274;28;20016;-60
2022/04/11 04:17:14;;;;;;;3.70;2.05;;;9.20;72.10;;;;;;5062359;28;20078;-60
2022/04/11 04:19:39;;;;;;;3.47;1.45;;;9.20;72.30;;;;;;5064099;28;20037;-60
2022/04/11 04:22:05;;;;;;;3.10;1.80;;;9.20;72.30;;;;;;5060470;28;20135;-61
2022/04/11 04:24:36;;;;;;;2.28;1.90;;;9.10;72.40;;;;;;5062798;28;20127;-60
2022/04/11 04:27:02;;;;;;;5.55;1.52;;;9.10;72.40;;;;;;5062820;28;20472;-60
2022/04/11 04:29:28;;;;;;;2.95;1.65;;;9.10;72.40;;;;;;5065083;28;20112;-60
2022/04/11 04:31:54;;;;;;;3.50;2.13;;;9.10;72.50;;;;;;5063550;28;20360;-60
2022/04/11 04:34:20;;;;;;;6.30;1.98;;;9.10;72.60;;;;;;5064153;28;20052;-60
2022/04/11 04:36:46;;;;;;;13.20;2.33;;;9.00;72.60;;;;;;5063763;28;20028;-61
2022/04/11 04:39:12;;;;;;;29.92;3.70;;;9.00;73.40;;;;;;5060563;28;20065;-60
2022/04/11 04:41:37;;;;;;;37.42;5.63;;;9.00;72.70;;;;;;5061574;28;20075;-61
2022/04/11 04:44:04;;;;;;;33.80;4.28;;;9.00;72.90;;;;;;5062466;28;20139;-61
2022/04/11 04:46:30;;;;;;;24.55;4.85;;;8.90;72.90;;;;;;5062554;28;20527;-60
2022/04/11 04:48:57;;;;;;;30.80;4.55;;;8.90;72.90;;;;;;5062663;28;20032;-60
2022/04/11 04:51:22;;;;;;;45.90;4.55;;;8.90;73.00;;;;;;5064173;28;20029;-61
2022/04/11 04:53:48;;;;;;;19.20;3.83;;;8.90;73.10;;;;;;5063132;28;20037;-60
2022/04/11 04:56:13;;;;;;;28.15;4.45;;;8.90;73.10;;;;;;5063586;28;20025;-61
2022/04/11 04:58:39;;;;;;;31.95;4.85;;;8.90;73.10;;;;;;5064379;28;20056;-60
2022/04/11 05:01:05;;;;;;;31.55;4.53;;;8.90;73.20;;;;;;5059090;28;20486;-61
2022/04/11 05:03:30;;;;;;;21.63;4.13;;;8.90;73.20;;;;;;5060459;28;20119;-60
2022/04/11 05:05:56;;;;;;;33.22;5.53;;;8.80;73.30;;;;;;5062283;28;20110;-60
2022/04/11 05:08:21;;;;;;;19.50;3.67;;;8.80;73.20;;;;;;5060430;28;20093;-60
2022/04/11 05:10:47;;;;;;;32.40;4.70;;;8.80;73.20;;;;;;5060856;28;20031;-60
2022/04/11 05:13:12;;;;;;;25.55;3.83;;;8.80;73.20;;;;;;5062674;28;20071;-61
2022/04/11 05:15:39;;;;;;;16.55;3.35;;;8.80;73.30;;;;;;5062596;28;20123;-61
2022/04/11 05:18:05;;;;;;;23.50;3.72;;;8.80;73.40;;;;;;5062450;28;20025;-60
2022/04/11 05:20:31;;;;;;;19.70;3.78;;;8.80;73.50;;;;;;5063270;28;20036;-60
2022/04/11 05:22:56;;;;;;;15.00;3.50;;;8.80;73.80;;;;;;5061579;28;20017;-59
2022/04/11 05:25:23;;;;;;;22.55;3.85;;;8.80;73.60;;;;;;5060567;28;20044;-61
2022/04/11 05:27:49;;;;;;;22.55;3.45;;;8.80;73.60;;;;;;5061308;28;20048;-60
2022/04/11 05:30:14;;;;;;;21.20;3.88;;;8.80;73.60;;;;;;5060400;28;20059;-60
2022/04/11 05:32:40;;;;;;;16.65;3.00;;;8.70;73.60;;;;;;5061374;28;20170;-61
2022/04/11 05:35:06;;;;;;;21.58;3.78;;;8.70;73.70;;;;;;5061625;28;20603;-61
2022/04/11 05:37:31;;;;;;;11.35;3.80;;;8.70;73.70;;;;;;5061657;28;20123;-61
2022/04/11 05:39:57;;;;;;;15.70;3.28;;;8.70;73.80;;;;;;5061290;28;20032;-59
2022/04/11 05:42:22;;;;;;;14.85;3.40;;;8.70;74.00;;;;;;5060930;28;20039;-60
2022/04/11 05:44:48;;;;;;;13.00;2.63;;;8.60;74.10;;;;;;5064060;28;20040;-60
2022/04/11 05:47:13;;;;;;;18.13;3.28;;;8.70;74.20;;;;;;5062608;28;20028;-60
2022/04/11 05:49:39;;;;;;;13.55;3.28;;;8.70;75.00;;;;;;5057643;28;20112;-60
2022/04/11 05:52:06;;;;;;;11.70;3.05;;;8.60;74.40;;;;;;5057888;28;20510;-60
2022/04/11 05:54:31;;;;;;;9.05;2.75;;;8.60;74.50;;;;;;5059025;28;20049;-60
2022/04/11 05:56:57;;;;;;;8.07;3.30;;;8.60;74.60;;;;;;5060062;28;20042;-60
2022/04/11 05:59:23;;;;;;;12.35;3.17;;;8.60;74.70;;;;;;5061506;28;20363;-61
2022/04/11 06:01:48;;;;;;;8.68;2.83;;;8.60;74.70;;;;;;5058302;28;20040;-60
2022/04/11 06:04:14;;;;;;;11.30;3.03;;;8.50;74.80;;;;;;5059796;28;20320;-60
2022/04/11 06:06:39;;;;;;;9.60;3.15;;;8.60;74.80;;;;;;5041839;28;20144;-64
2022/04/11 06:09:05;;;;;;;10.95;3.35;;;8.50;74.80;;;;;;5052497;28;20499;-60
2022/04/11 06:11:31;;;;;;;9.95;3.55;;;8.50;74.80;;;;;;5056119;28;20074;-59
2022/04/11 06:13:56;;;;;;;13.45;3.15;;;8.50;74.90;;;;;;5053985;28;20126;-61
2022/04/11 06:16:22;;;;;;;12.63;3.30;;;8.50;75.00;;;;;;5054897;28;20044;-60
2022/04/11 06:18:47;;;;;;;8.15;3.03;;;8.50;75.00;;;;;;5059595;28;20472;-60
2022/04/11 06:21:13;;;;;;;10.95;2.90;;;8.50;75.60;;;;;;5059662;28;20502;-60
2022/04/11 06:23:38;;;;;;;14.05;3.50;;;8.50;75.00;;;;;;5059052;28;20024;-60
2022/04/11 06:26:04;;;;;;;10.52;3.08;;;8.50;75.10;;;;;;5054830;28;20028;-61
2022/04/11 06:28:29;;;;;;;5.55;3.00;;;8.50;75.10;;;;;;5056130;28;20151;-60
2022/04/11 06:30:55;;;;;;;7.45;2.53;;;8.50;75.00;;;;;;5058373;28;20028;-60
2022/04/11 06:33:20;;;;;;;11.68;3.15;;;8.50;75.00;;;;;;5060175;28;20052;-60
2022/04/11 06:35:46;;;;;;;4.57;2.67;;;8.50;75.10;;;;;;5058399;28;20426;-60
2022/04/11 06:38:12;;;;;;;8.73;2.50;;;8.50;75.30;;;;;;5036821;28;20028;-60
2022/04/11 06:40:37;;;;;;;10.73;3.20;;;8.50;75.40;;;;;;5057082;28;20028;-60
2022/04/11 06:43:03;;;;;;;12.65;3.20;;;8.50;75.30;;;;;;5058603;28;20032;-60
2022/04/11 06:45:28;;;;;;;7.05;3.15;;;8.50;75.30;;;;;;5062013;28;20598;-60
2022/04/11 06:47:54;;;;;;;15.95;3.60;;;8.50;75.50;;;;;;5055657;28;20473;-60
2022/04/11 06:50:19;;;;;;;12.18;3.40;;;8.50;75.40;;;;;;5054351;28;20048;-61
2022/04/11 06:52:45;;;;;;;28.05;4.65;;;8.50;75.70;;;;;;5058143;28;20048;-60
2022/04/11 06:55:10;;;;;;;16.63;3.97;;;8.50;75.70;;;;;;5055884;28;20558;-60
2022/04/11 06:57:36;;;;;;;32.25;4.43;;;8.50;75.80;;;;;;5053406;28;20053;-60
2022/04/11 07:00:01;;;;;;;18.33;4.20;;;8.50;75.80;;;;;;5057331;28;20426;-60
2022/04/11 07:02:27;;;;;;;20.73;4.10;;;8.50;76.00;;;;;;5055311;28;20460;-60
2022/04/11 07:04:53;;;;;;;21.63;3.83;;;8.50;75.90;;;;;;5055670;28;20097;-60
2022/04/11 07:07:19;;;;;;;14.45;4.00;;;8.50;75.70;;;;;;5056551;28;20035;-60
2022/04/11 07:09:45;;;;;;;22.40;4.28;;;8.50;75.60;;;;;;5056975;28;20405;-61
2022/04/11 07:12:11;;;;;;;23.63;4.20;;;8.50;75.60;;;;;;5059322;28;20064;-60
2022/04/11 07:14:36;;;;;;;9.15;3.38;;;8.50;75.70;;;;;;5056958;28;20408;-61
2022/04/11 07:17:02;;;;;;;17.00;4.07;;;8.50;75.70;;;;;;5055255;28;20056;-61
2022/04/11 07:19:28;;;;;;;18.38;4.38;;;8.50;75.70;;;;;;5037161;28;20036;-60
2022/04/11 07:21:53;;;;;;;21.15;4.63;;;8.50;75.60;;;;;;5054749;28;20360;-61
2022/04/11 07:24:19;;;;;;;25.27;4.45;;;8.60;75.70;;;;;;5055136;28;20040;-60
2022/04/11 07:26:44;;;;;;;26.55;4.18;;;8.50;75.70;;;;;;5058111;28;20048;-61
2022/04/11 07:29:10;;;;;;;31.98;4.95;;;8.50;75.60;;;;;;5057960;28;20032;-60
2022/04/11 07:31:35;;;;;;;19.75;3.63;;;8.50;75.80;;;;;;5056705;28;20056;-60
2022/04/11 07:34:01;;;;;;;38.95;6.13;;;8.50;75.70;;;;;;5058556;28;20040;-60
2022/04/11 07:36:28;;;;;;;25.48;5.95;;;8.60;75.70;;;;;;5060473;28;20384;-61
2022/04/11 07:38:57;;;;;;;28.40;5.40;;;8.60;75.90;;;;;;5057208;28;20075;-60
2022/04/11 07:41:23;;;;;;;57.33;8.07;;;8.60;75.90;;;;;;5051361;28;20033;-60
2022/04/11 07:43:50;;;;;;;52.47;6.47;;;8.60;75.80;;;;;;5059436;28;20218;-60
2022/04/11 07:46:15;;;;;;;24.73;6.22;;;8.60;75.80;;;;;;5060790;28;20141;-60
2022/04/11 07:48:41;;;;;;;30.73;6.43;;;8.60;75.80;;;;;;5060445;28;20041;-60
2022/04/11 07:51:06;;;;;;;43.65;5.95;;;8.60;75.90;;;;;;5059431;28;20082;-61
2022/04/11 07:53:32;;;;;;;46.15;6.80;;;8.50;75.90;;;;;;5062470;28;20033;-61
2022/04/11 07:55:57;;;;;;;49.55;8.48;;;8.60;75.90;;;;;;5062953;28;20052;-60
2022/04/11 07:58:23;;;;;;;63.42;10.57;;;8.60;75.80;;;;;;5061116;28;20056;-60
2022/04/11 08:00:51;;;;;;;60.85;10.10;;;8.60;75.80;;;;;;5061344;28;20107;-60
2022/04/11 08:03:17;;;;;;;85.40;11.13;;;8.60;75.70;;;;;;5057734;28;20437;-61
2022/04/11 08:05:42;;;;;;;66.88;9.90;;;8.60;75.60;;;;;;5056586;28;20499;-60
2022/04/11 08:08:08;;;;;;;72.85;9.70;;;8.70;75.70;;;;;;5061165;28;20028;-60
2022/04/11 08:10:34;;;;;;;51.75;8.13;;;8.60;75.60;;;;;;5043524;28;20032;-60
2022/04/11 08:12:59;;;;;;;32.00;7.00;;;8.60;75.70;;;;;;5056230;28;20433;-60
2022/04/11 08:15:26;;;;;;;38.15;7.70;;;8.70;75.80;;;;;;5058485;28;20146;-60
2022/04/11 08:17:53;;;;;;;41.53;7.57;;;8.70;75.80;;;;;;5058557;28;20112;-60
2022/04/11 08:20:19;;;;;;;42.60;7.22;;;8.70;75.80;;;;;;5061759;28;20039;-60
2022/04/11 08:22:45;;;;;;;49.88;7.18;;;8.70;75.80;;;;;;5057275;28;20036;-61
2022/04/11 08:25:11;;;;;;;59.80;7.50;;;8.70;75.80;;;;;;5055024;28;20065;-60
2022/04/11 08:27:36;;;;;;;60.20;7.97;;;8.70;75.90;;;;;;5055825;28;20115;-60
2022/04/11 08:30:03;;;;;;;63.58;8.25;;;8.70;76.00;;;;;;5057805;28;20043;-60
2022/04/11 08:32:37;;;;;;;52.45;8.48;;;8.80;76.00;;;;;;5056298;28;20043;-60
2022/04/11 08:35:03;;;;;;;40.80;7.25;;;8.80;75.90;;;;;;5056892;28;20025;-60
2022/04/11 08:37:28;;;;;;;58.45;8.75;;;8.80;75.90;;;;;;5059026;28;20029;-61
2022/04/11 08:39:54;;;;;;;44.03;8.45;;;8.80;75.80;;;;;;5057005;28;20020;-59
2022/04/11 08:42:22;;;;;;;62.75;8.00;;;8.80;75.80;;;;;;5056941;28;20695;-60
2022/04/11 08:44:49;;;;;;;58.88;8.40;;;8.80;75.80;;;;;;5057089;28;20029;-60
2022/04/11 08:47:15;;;;;;;57.10;8.48;;;8.90;76.00;;;;;;5058627;28;20020;-61
2022/04/11 08:49:40;;;;;;;53.17;9.40;;;8.90;75.80;;;;;;5059562;28;20039;-60
2022/04/11 08:52:06;;;;;;;56.50;8.73;;;8.90;75.60;;;;;;5070714;28;20115;-60
2022/04/11 08:54:33;;;;;;;55.05;9.60;;;8.90;75.80;;;;;;5058417;28;20040;-60
2022/04/11 08:56:59;;;;;;;57.13;8.50;;;8.90;75.50;;;;;;5059116;28;20131;-60
2022/04/11 08:59:24;;;;;;;44.20;7.57;;;9.00;75.40;;;;;;5058835;28;20040;-60
2022/04/11 09:01:49;;;;;;;62.30;7.95;;;8.90;75.20;;;;;;5058692;28;20023;-60
2022/04/11 09:04:15;;;;;;;75.00;10.02;;;9.00;75.20;;;;;;5042942;28;20021;-59
2022/04/11 09:06:41;;;;;;;73.28;9.25;;;9.00;75.20;;;;;;5041936;28;20115;-60
2022/04/11 09:09:06;;;;;;;50.60;7.07;;;9.00;75.10;;;;;;5059852;28;20372;-60
2022/04/11 09:11:36;;;;;;;33.10;7.20;;;9.00;74.90;;;;;;5057262;28;20376;-60
2022/04/11 09:14:06;;;;;;;40.25;6.72;;;9.10;74.70;;;;;;5046386;28;20247;-60
2022/04/11 09:16:50;;;;;;;48.40;8.65;;;9.10;74.50;;;;;;5054274;28;20153;-60
2022/04/11 09:19:20;;;;;;;80.43;10.23;;;9.10;74.40;;;;;;5051388;28;20029;-60
2022/04/11 09:21:45;;;;;;;72.55;9.25;;;9.10;74.50;;;;;;5056249;28;20115;-61
2022/04/11 09:24:19;;;;;;;77.00;10.45;;;9.20;74.40;;;;;;5059347;28;20083;-60
2022/04/11 09:26:45;;;;;;;80.78;10.10;;;9.20;74.20;;;;;;5057967;28;20036;-60
2022/04/11 09:29:10;;;;;;;63.75;10.02;;;9.20;74.00;;;;;;5056608;28;20073;-60
2022/04/11 09:31:36;;;;;;;82.30;9.50;;;9.30;74.00;;;;;;5057946;28;20040;-59
2022/04/11 09:34:14;;;;;;;91.05;11.93;;;9.30;74.40;;;;;;5051623;28;20302;-60
2022/04/11 09:36:50;;;;;;;92.30;11.68;;;9.30;74.40;;;;;;5031928;28;20460;-60
2022/04/11 09:39:19;;;;;;;;;;;9.30;74.30;;;;;;5058941;28;20028;-60
2022/04/11 09:41:46;;;;;;;95.82;12.85;;;9.30;74.50;;;;;;5061023;28;19912;-60
2022/04/11 09:44:28;;;;;;;109.95;15.18;;;9.40;74.40;;;;;;5059215;28;20063;-60
2022/04/11 09:46:55;;;;;;;152.93;16.63;;;9.40;74.60;;;;;;5059908;28;20479;-60
2022/04/11 09:49:20;;;;;;;135.00;15.50;;;9.40;74.50;;;;;;5042615;28;20020;-61
2022/04/11 09:52:07;;;;;;;131.52;14.70;;;9.40;74.60;;;;;;5061704;28;20126;-60
2022/04/11 09:54:34;;;;;;;117.20;15.00;;;9.50;74.60;;;;;;5061242;28;20055;-60
2022/04/11 09:57:00;;;;;;;86.53;13.00;;;9.50;74.50;;;;;;5043662;28;20025;-60
2022/04/11 09:59:26;;;;;;;87.18;12.50;;;9.50;74.40;;;;;;5040929;28;20400;-60
2022/04/11 10:01:52;;;;;;;123.57;14.35;;;9.50;74.50;;;;;;5055798;28;20028;-60
2022/04/11 10:04:21;;;;;;;78.47;11.52;;;9.60;74.50;;;;;;5059057;28;20130;-60
2022/04/11 10:06:47;;;;;;;87.35;13.27;;;9.60;74.40;;;;;;5008742;28;20657;-60
2022/04/11 10:09:13;;;;;;;77.43;11.60;;;9.90;74.20;;;;;;5030500;28;20036;-60
2022/04/11 10:11:40;;;;;;;53.90;8.75;;;9.70;74.10;;;;;;5008488;28;20044;-60
2022/04/11 10:14:06;;;;;;;77.57;10.00;;;9.70;73.60;;;;;;5009114;28;20040;-60
2022/04/11 10:16:32;;;;;;;83.45;10.20;;;9.70;73.60;;;;;;5014077;28;20757;-61
2022/04/11 10:19:01;;;;;;;78.55;10.60;;;9.70;73.40;;;;;;5030762;28;20389;-60
2022/04/11 10:21:26;;;;;;;64.95;9.95;;;9.80;73.10;;;;;;5014107;28;20036;-60
2022/04/11 10:24:06;;;;;;;85.03;10.82;;;9.80;73.30;;;;;;5031669;28;20171;-61
2022/04/11 10:26:50;;;;;;;66.35;10.85;;;9.90;73.90;;;;;;5026142;28;20028;-61
2022/04/11 10:29:36;;;;;;;77.18;10.30;;;9.90;73.60;;;;;;5031692;28;20749;-61
2022/04/11 10:32:09;;;;;;;64.18;10.52;;;10.00;73.50;;;;;;5001213;28;20059;-60
2022/04/11 10:34:45;;;;;;;64.35;9.60;;;10.10;73.00;;;;;;5032762;28;20040;-61
2022/04/11 10:37:11;;;;;;;;;;;10.10;72.40;;;;;;5033383;28;20081;-60
2022/04/11 10:39:37;;;;;;;53.92;9.63;;;10.20;72.30;;;;;;5033670;28;20083;-60
2022/04/11 10:42:06;;;;;;;88.75;10.20;;;10.20;72.40;;;;;;4999035;28;20064;-60
2022/04/11 10:44:31;;;;;;;76.13;9.50;;;10.30;72.30;;;;;;5032729;28;20041;-60
2022/04/11 10:47:12;;;;;;;74.78;10.65;;;10.50;72.20;;;;;;5034163;28;21127;-60
2022/04/11 10:49:50;;;;;;;78.85;11.05;;;10.40;72.00;;;;;;5026833;28;20047;-61
2022/04/11 10:52:32;;;;;;;90.63;11.07;;;10.50;72.10;;;;;;5031360;28;20039;-60
2022/04/11 10:55:11;;;;;;;76.57;12.75;;;10.50;71.80;;;;;;5030140;28;20031;-61
2022/04/11 10:57:43;;;;;;;103.65;11.90;;;10.40;71.60;;;;;;5009907;28;20025;-60
2022/04/11 11:00:15;;;;;;;111.25;13.02;;;10.70;71.50;;;;;;5030376;28;20052;-59
2022/04/11 11:02:50;;;;;;;73.45;9.75;;;10.70;71.30;;;;;;5029990;28;20041;-61
2022/04/11 11:05:37;;;;;;;115.23;12.43;;;10.80;70.50;;;;;;5030741;28;20041;-60
2022/04/11 11:08:17;;;;;;;90.68;11.15;;;10.90;70.30;;;;;;5027955;28;20345;-61
2022/04/11 11:10:44;;;;;;;104.78;12.32;;;10.90;70.10;;;;;;5029102;28;21412;-61
2022/04/11 11:13:30;;;;;;;142.07;15.93;;;11.10;70.40;;;;;;5028655;28;20042;-60
2022/04/11 11:16:19;;;;;;;149.13;16.90;;;11.10;70.40;;;;;;5030334;28;20036;-60
2022/04/11 11:18:51;;;;;;;132.35;14.30;;;11.20;70.20;;;;;;5039535;28;20099;-60
2022/04/11 11:21:22;;;;;;;145.07;15.88;;;11.30;69.20;;;;;;5032477;28;20033;-60
2022/04/11 11:24:08;;;;;;;135.57;15.82;;;11.30;69.00;;;;;;5048747;28;21127;-60
2022/04/11 11:26:53;;;;;;;83.60;9.43;;;11.40;68.80;;;;;;5037376;28;20032;-60
2022/04/11 11:29:19;;;;;;;108.03;13.73;;;11.50;67.70;;;;;;5033655;28;20112;-60
2022/04/11 11:31:46;;;;;;;150.73;16.60;;;11.60;67.40;;;;;;5041741;28;20048;-60
2022/04/11 11:34:13;;;;;;;188.73;20.13;;;11.60;68.00;;;;;;5058676;28;20032;-60
2022/04/11 11:36:39;;;;;;;114.32;14.48;;;11.80;68.20;;;;;;5054769;28;20435;-61
2022/04/11 11:39:18;;;;;;;123.95;12.80;;;11.80;67.40;;;;;;5038072;28;20139;-61
2022/04/11 11:41:44;;;;;;;147.50;16.70;;;11.90;65.80;;;;;;5038863;28;20031;-61
2022/04/11 11:44:10;;;;;;;112.63;12.98;;;12.00;66.00;;;;;;5054147;28;20021;-61
2022/04/11 11:46:56;;;;;;;148.30;18.40;;;12.10;65.60;;;;;;5056036;28;20043;-60
2022/04/11 11:49:22;;;;;;;162.55;19.70;;;12.20;65.90;;;;;;5056480;28;20032;-61
2022/04/11 11:51:48;;;;;;;237.43;23.02;;;12.30;66.10;;;;;;5060231;28;20499;-60
2022/04/11 11:54:14;;;;;;;169.35;19.42;;;12.30;66.80;;;;;;5057087;28;20048;-61
2022/04/11 11:56:43;;;;;;;242.02;25.42;;;12.40;66.80;;;;;;5033351;28;20097;-60
2022/04/11 11:59:10;;;;;;;201.40;21.77;;;12.50;67.30;;;;;;5051304;28;20029;-60
2022/04/11 12:01:35;;;;;;;166.95;19.67;;;12.60;67.10;;;;;;5058156;28;20077;-60
2022/04/11 12:04:19;;;;;;;194.32;20.65;;;12.60;66.70;;;;;;5037534;28;20234;-60
2022/04/11 12:06:52;;;;;;;205.43;26.17;;;12.70;66.40;;;;;;5052656;28;20040;-60
2022/04/11 12:09:18;;;;;;;225.68;27.45;;;12.80;67.20;;;;;;5054877;28;20090;-61
2022/04/11 12:11:43;;;;;;;201.93;24.02;;;12.80;67.50;;;;;;5040880;28;20086;-60
2022/04/11 12:14:09;;;;;;;192.63;23.48;;;12.90;66.70;;;;;;5036589;28;20053;-60
2022/04/11 12:16:37;;;;;;;227.57;26.65;;;12.90;66.40;;;;;;5047140;28;20028;-60
2022/04/11 12:19:04;;;;;;;222.20;24.13;;;13.00;66.70;;;;;;5060882;28;20391;-60
2022/04/11 12:21:33;;;;;;;225.45;26.85;;;13.00;66.50;;;;;;5058983;28;20730;-61
2022/04/11 12:23:59;;;;;;;219.57;28.17;;;13.10;65.90;;;;;;5057954;28;20021;-61
2022/04/11 12:26:26;;;;;;;210.35;25.92;;;13.30;65.70;;;;;;5056852;28;20039;-60
2022/04/11 12:28:51;;;;;;;267.77;29.20;;;13.30;65.90;;;;;;5055822;28;20116;-60
2022/04/11 12:31:18;;;;;;;225.75;24.77;;;13.40;65.80;;;;;;5054617;28;20094;-61
2022/04/11 12:33:46;;;;;;;244.10;26.00;;;13.40;65.90;;;;;;5057999;28;20375;-60
2022/04/11 12:36:12;;;;;;;222.82;27.52;;;13.60;66.10;;;;;;5057025;28;20126;-61
2022/04/11 12:38:42;;;;;;;207.48;24.77;;;13.60;66.10;;;;;;5056585;28;20044;-60
2022/04/11 12:41:22;;;;;;;255.27;27.17;;;13.70;66.10;;;;;;5073587;28;20043;-61
2022/04/11 12:44:07;;;;;;;216.50;26.13;;;13.80;66.00;;;;;;5058012;28;20024;-60